createdAt,value
2022-07-26T00:01:31.678Z,25.94
2022-07-26T00:04:00.108Z,25.87
2022-07-26T00:06:27.224Z,25.90
2022-07-26T00:08:54.252Z,25.91
2022-07-26T00:11:21.732Z,25.88
2022-07-26T00:13:48.526Z,25.84
2022-07-26T00:16:15.335Z,25.84
2022-07-26T00:18:42.228Z,25.80
2022-07-26T00:21:08.862Z,25.78
2022-07-26T00:23:35.713Z,25.77
2022-07-26T00:26:02.358Z,25.75
2022-07-26T00:28:28.959Z,25.71
2022-07-26T00:30:55.575Z,25.68
2022-07-26T00:33:22.180Z,25.45
2022-07-26T00:35:48.790Z,25.60
2022-07-26T00:38:15.429Z,25.52
2022-07-26T00:40:42.056Z,25.42
2022-07-26T00:43:08.710Z,25.29
2022-07-26T00:45:35.338Z,25.19
2022-07-26T00:48:02.259Z,25.17
2022-07-26T00:50:28.918Z,25.14
2022-07-26T00:52:55.616Z,25.13
2022-07-26T00:55:22.441Z,25.12
2022-07-26T00:57:49.124Z,25.11
2022-07-26T01:00:27.802Z,25.09
2022-07-26T01:02:55.509Z,25.08
2022-07-26T01:05:23.498Z,25.06
2022-07-26T01:07:50.377Z,25.06
2022-07-26T01:10:16.960Z,25.01
2022-07-26T01:12:44.322Z,24.88
2022-07-26T01:15:12.799Z,24.86
2022-07-26T01:17:39.705Z,24.86
2022-07-26T01:20:08.983Z,24.86
2022-07-26T01:22:35.653Z,24.87
2022-07-26T01:25:02.227Z,24.87
2022-07-26T01:27:33.824Z,24.86
2022-07-26T01:30:00.879Z,24.85
2022-07-26T01:32:27.481Z,24.83
2022-07-26T01:34:54.104Z,24.83
2022-07-26T01:37:20.757Z,24.81
2022-07-26T01:39:47.452Z,24.82
2022-07-26T01:42:13.964Z,24.76
2022-07-26T01:44:40.734Z,24.73
2022-07-26T01:47:07.763Z,24.62
2022-07-26T01:49:34.602Z,24.53
2022-07-26T01:52:01.308Z,24.49
2022-07-26T01:54:27.992Z,24.46
2022-07-26T01:56:54.530Z,24.44
2022-07-26T01:59:21.257Z,24.45
2022-07-26T02:01:47.938Z,24.47
2022-07-26T02:04:34.627Z,24.48
2022-07-26T02:07:03.329Z,24.49
2022-07-26T02:09:38.137Z,24.47
2022-07-26T02:12:07.231Z,24.38
2022-07-26T02:14:33.848Z,24.45
2022-07-26T02:17:00.839Z,24.43
2022-07-26T02:19:28.220Z,24.43
2022-07-26T02:21:55.188Z,24.42
2022-07-26T02:24:22.013Z,24.39
2022-07-26T02:26:48.673Z,24.40
2022-07-26T02:29:15.276Z,24.38
2022-07-26T02:31:41.917Z,24.39
2022-07-26T02:36:47.825Z,24.39
2022-07-26T02:39:15.041Z,24.37
2022-07-26T02:41:42.109Z,24.36
2022-07-26T02:44:09.996Z,24.32
2022-07-26T02:46:37.622Z,24.30
2022-07-26T02:49:04.935Z,24.28
2022-07-26T02:51:31.702Z,24.24
2022-07-26T02:53:58.381Z,24.18
2022-07-26T02:56:24.989Z,24.14
2022-07-26T02:58:51.656Z,24.09
2022-07-26T03:01:18.358Z,23.98
2022-07-26T03:03:50.386Z,23.86
2022-07-26T03:06:18.677Z,23.75
2022-07-26T03:08:45.699Z,23.63
2022-07-26T03:11:12.486Z,23.64
2022-07-26T03:13:39.314Z,23.66
2022-07-26T03:16:07.596Z,23.70
2022-07-26T03:18:34.251Z,23.73
2022-07-26T03:21:00.937Z,23.71
2022-07-26T03:23:27.581Z,23.77
2022-07-26T03:25:54.202Z,23.80
2022-07-26T03:28:20.800Z,23.80
2022-07-26T03:30:47.461Z,23.76
2022-07-26T03:33:14.029Z,23.70
2022-07-26T03:35:40.670Z,23.67
2022-07-26T03:38:07.205Z,23.69
2022-07-26T03:40:33.829Z,23.71
2022-07-26T03:43:00.556Z,23.73
2022-07-26T03:45:29.810Z,23.71
2022-07-26T03:47:56.358Z,23.78
2022-07-26T03:50:23.094Z,23.55
2022-07-26T03:55:41.499Z,23.52
2022-07-26T03:58:09.041Z,23.64
2022-07-26T04:00:35.640Z,23.58
2022-07-26T04:03:02.383Z,23.54
2022-07-26T04:05:29.050Z,23.51
2022-07-26T04:07:58.006Z,23.50
2022-07-26T04:10:25.858Z,23.46
2022-07-26T04:15:37.227Z,23.32
2022-07-26T04:18:03.972Z,23.27
2022-07-26T04:20:30.618Z,23.25
2022-07-26T04:22:57.277Z,23.26
2022-07-26T04:25:23.971Z,23.26
2022-07-26T04:27:50.571Z,23.26
2022-07-26T04:30:17.219Z,23.30
2022-07-26T04:32:46.430Z,23.31
2022-07-26T04:35:13.802Z,23.29
2022-07-26T04:37:42.675Z,23.43
2022-07-26T04:40:11.804Z,23.47
2022-07-26T04:42:39.712Z,23.54
2022-07-26T04:45:08.558Z,23.61
2022-07-26T04:47:35.503Z,23.65
2022-07-26T04:50:03.710Z,23.70
2022-07-26T04:52:30.338Z,23.76
2022-07-26T04:54:56.914Z,23.80
2022-07-26T04:57:23.647Z,23.87
2022-07-26T05:00:03.393Z,23.91
2022-07-26T05:02:36.990Z,23.98
2022-07-26T05:05:05.080Z,23.99
2022-07-26T05:07:49.422Z,24.09
2022-07-26T05:10:18.284Z,24.12
2022-07-26T05:12:48.787Z,24.09
2022-07-26T05:15:16.165Z,24.12
2022-07-26T05:17:43.574Z,24.21
2022-07-26T05:20:12.312Z,24.25
2022-07-26T05:22:42.125Z,24.29
2022-07-26T05:25:10.302Z,24.32
2022-07-26T05:27:37.089Z,24.34
2022-07-26T05:30:04.065Z,24.36
2022-07-26T05:32:30.693Z,24.37
2022-07-26T05:34:57.408Z,24.40
2022-07-26T05:37:24.020Z,24.43
2022-07-26T05:39:50.890Z,24.43
2022-07-26T05:42:17.468Z,24.45
2022-07-26T05:44:44.094Z,24.47
2022-07-26T05:47:11.224Z,24.48
2022-07-26T05:49:39.639Z,24.50
2022-07-26T05:52:07.451Z,24.53
2022-07-26T05:54:34.140Z,24.53
2022-07-26T05:57:00.884Z,24.55
2022-07-26T05:59:28.166Z,24.57
2022-07-26T06:01:58.117Z,24.59
2022-07-26T06:04:26.725Z,24.60
2022-07-26T06:06:55.003Z,24.63
2022-07-26T06:09:24.818Z,24.64
2022-07-26T06:11:51.871Z,24.63
2022-07-26T06:14:20.013Z,24.67
2022-07-26T06:16:47.261Z,24.68
2022-07-26T06:19:14.001Z,24.70
2022-07-26T06:21:42.092Z,24.71
2022-07-26T06:24:09.054Z,24.73
2022-07-26T06:26:35.951Z,24.75
2022-07-26T06:29:02.548Z,24.76
2022-07-26T06:31:29.590Z,24.77
2022-07-26T06:33:56.132Z,24.79
2022-07-26T06:36:26.098Z,24.80
2022-07-26T06:38:55.245Z,24.83
2022-07-26T06:41:22.136Z,24.83
2022-07-26T06:43:48.758Z,24.84
2022-07-26T06:46:16.429Z,24.86
2022-07-26T06:48:47.213Z,24.86
2022-07-26T06:51:14.516Z,24.88
2022-07-26T06:53:41.726Z,24.89
2022-07-26T06:56:08.587Z,24.91
2022-07-26T06:58:35.159Z,24.88
2022-07-26T07:01:01.914Z,24.94
2022-07-26T07:03:28.469Z,24.94
2022-07-26T07:05:55.110Z,24.96
2022-07-26T07:08:23.264Z,24.97
2022-07-26T07:10:50.854Z,24.97
2022-07-26T07:13:17.832Z,24.99
2022-07-26T07:15:45.139Z,24.97
2022-07-26T07:18:11.984Z,25.03
2022-07-26T07:20:40.461Z,25.03
2022-07-26T07:23:08.036Z,25.05
2022-07-26T07:25:34.636Z,25.07
2022-07-26T07:28:01.715Z,25.08
2022-07-26T07:30:28.836Z,25.09
2022-07-26T07:32:56.550Z,25.11
2022-07-26T07:35:23.522Z,25.11
2022-07-26T07:37:53.565Z,25.14
2022-07-26T07:40:21.598Z,25.13
2022-07-26T07:42:48.226Z,25.14
2022-07-26T07:47:26.946Z,25.17
2022-07-26T07:52:10.026Z,25.18
2022-07-26T07:54:36.817Z,25.19
2022-07-26T07:57:03.452Z,25.19
2022-07-26T07:59:30.779Z,25.21
2022-07-26T08:01:57.393Z,25.21
2022-07-26T08:04:24.152Z,25.22
2022-07-26T08:06:51.361Z,25.24
2022-07-26T08:09:19.200Z,25.25
2022-07-26T08:11:45.999Z,25.23
2022-07-26T08:14:18.449Z,25.26
2022-07-26T08:16:45.258Z,25.20
2022-07-26T08:19:12.394Z,25.29
2022-07-26T08:21:39.181Z,25.28
2022-07-26T08:24:06.928Z,25.31
2022-07-26T08:26:36.633Z,25.33
2022-07-26T08:29:03.636Z,25.30
2022-07-26T08:31:30.606Z,25.31
2022-07-26T08:33:57.534Z,25.36
2022-07-26T08:36:31.963Z,25.30
2022-07-26T08:39:00.941Z,25.37
2022-07-26T08:41:28.416Z,25.38
2022-07-26T08:43:55.058Z,25.40
2022-07-26T08:46:26.483Z,25.35
2022-07-26T08:48:55.570Z,25.39
2022-07-26T08:51:24.822Z,25.39
2022-07-26T08:54:04.061Z,25.43
2022-07-26T08:56:36.162Z,25.43
2022-07-26T08:59:18.860Z,25.44
2022-07-26T09:01:51.014Z,25.45
2022-07-26T09:04:31.026Z,25.45
2022-07-26T09:07:18.261Z,25.46
2022-07-26T09:10:00.670Z,25.48
2022-07-26T09:12:29.489Z,25.49
2022-07-26T09:14:57.153Z,25.44
2022-07-26T09:17:26.099Z,25.50
2022-07-26T09:20:09.747Z,25.52
2022-07-26T09:23:08.713Z,25.52
2022-07-26T09:25:37.995Z,25.52
2022-07-26T09:28:20.912Z,25.52
2022-07-26T09:31:22.745Z,25.54
2022-07-26T09:33:51.540Z,25.55
2022-07-26T09:36:18.969Z,25.57
2022-07-26T09:38:54.732Z,25.58
2022-07-26T09:41:30.306Z,25.59
2022-07-26T09:44:00.497Z,25.58
2022-07-26T09:46:29.614Z,25.59
2022-07-26T09:49:12.931Z,25.60
2022-07-26T09:51:45.512Z,25.61
2022-07-26T09:54:19.674Z,25.63
2022-07-26T09:56:51.804Z,25.63
2022-07-26T09:59:21.606Z,25.63
2022-07-26T10:01:50.752Z,25.63
2022-07-26T10:04:18.471Z,25.64
2022-07-26T10:06:45.813Z,25.66
2022-07-26T10:09:13.789Z,25.66
2022-07-26T10:11:50.793Z,25.67
2022-07-26T10:14:32.667Z,25.67
2022-07-26T10:17:35.238Z,25.67
2022-07-26T10:20:10.660Z,25.69
2022-07-26T10:22:47.873Z,25.69
2022-07-26T10:25:17.396Z,25.70
2022-07-26T10:27:48.944Z,25.71
2022-07-26T10:30:28.843Z,25.72
2022-07-26T10:33:10.190Z,25.72
2022-07-26T10:35:40.158Z,25.74
2022-07-26T10:38:10.811Z,25.74
2022-07-26T10:40:38.965Z,25.75
2022-07-26T10:43:40.640Z,25.76
2022-07-26T10:46:20.162Z,25.76
2022-07-26T10:49:03.631Z,25.78
2022-07-26T10:51:40.987Z,25.78
2022-07-26T10:54:12.158Z,25.78
2022-07-26T10:56:40.102Z,25.78
2022-07-26T10:59:07.024Z,25.79
2022-07-26T11:01:42.190Z,25.80
2022-07-26T11:04:19.432Z,25.75
2022-07-26T11:06:49.146Z,25.82
2022-07-26T11:09:17.375Z,25.81
2022-07-26T11:11:47.210Z,25.81
2022-07-26T11:14:17.060Z,25.82
2022-07-26T11:16:49.955Z,25.82
2022-07-26T11:19:22.169Z,25.82
2022-07-26T11:21:58.527Z,25.83
2022-07-26T11:24:26.804Z,25.84
2022-07-26T11:26:54.149Z,25.85
2022-07-26T11:29:39.195Z,25.85
2022-07-26T11:32:18.598Z,25.86
2022-07-26T11:34:46.456Z,25.86
2022-07-26T11:37:13.544Z,25.87
2022-07-26T11:39:40.319Z,25.85
2022-07-26T11:42:09.493Z,25.87
2022-07-26T11:44:36.557Z,25.89
2022-07-26T11:47:14.652Z,25.89
2022-07-26T11:50:00.207Z,25.89
2022-07-26T11:52:32.023Z,25.86
2022-07-26T11:54:59.491Z,25.91
2022-07-26T11:57:30.545Z,25.91
2022-07-26T11:59:58.879Z,25.67
2022-07-26T12:02:27.240Z,25.91
2022-07-26T12:05:21.180Z,25.93
2022-07-26T12:10:15.774Z,25.92
2022-07-26T12:12:42.650Z,25.89
2022-07-26T12:15:09.555Z,25.93
2022-07-26T12:17:36.200Z,25.94
2022-07-26T12:20:12.955Z,25.96
2022-07-26T12:22:39.897Z,25.96
2022-07-26T12:25:07.238Z,25.95
2022-07-26T12:27:34.112Z,25.94
2022-07-26T12:30:03.837Z,25.97
2022-07-26T12:32:52.016Z,25.98
2022-07-26T12:35:32.067Z,25.97
2022-07-26T12:37:59.408Z,25.98
2022-07-26T12:40:31.129Z,25.98
2022-07-26T12:43:01.043Z,25.99
2022-07-26T12:45:34.829Z,26.00
2022-07-26T12:48:03.778Z,26.00
2022-07-26T12:50:35.069Z,26.02
2022-07-26T12:53:06.964Z,26.02
2022-07-26T12:55:34.420Z,25.60
2022-07-26T12:58:01.047Z,26.04
2022-07-26T13:00:29.848Z,26.04
2022-07-26T13:02:57.287Z,26.05
2022-07-26T13:05:24.337Z,26.05
2022-07-26T13:07:55.480Z,26.05
2022-07-26T13:10:37.957Z,26.05
2022-07-26T13:13:05.088Z,26.05
2022-07-26T13:15:36.605Z,26.05
2022-07-26T13:18:08.281Z,26.05
2022-07-26T13:20:38.245Z,26.06
2022-07-26T13:23:05.232Z,26.06
2022-07-26T13:25:38.308Z,26.06
2022-07-26T13:28:07.450Z,26.06
2022-07-26T13:30:35.888Z,26.06
2022-07-26T13:33:02.738Z,26.07
2022-07-26T13:35:29.335Z,26.07
2022-07-26T13:37:55.966Z,26.07
2022-07-26T13:40:24.358Z,26.08
2022-07-26T13:42:54.674Z,26.09
2022-07-26T13:45:21.257Z,26.09
2022-07-26T13:47:47.959Z,26.10
2022-07-26T13:50:14.518Z,26.09
2022-07-26T13:52:41.215Z,26.10
2022-07-26T13:55:08.251Z,26.11
2022-07-26T13:57:49.614Z,26.09
2022-07-26T14:00:21.883Z,26.11
2022-07-26T14:02:48.572Z,26.12
2022-07-26T14:05:15.218Z,26.12
2022-07-26T14:07:42.507Z,26.13
2022-07-26T14:10:09.676Z,26.13
2022-07-26T14:12:38.081Z,26.13
2022-07-26T14:15:12.765Z,26.09
2022-07-26T14:17:42.087Z,26.16
2022-07-26T14:20:09.512Z,26.09
2022-07-26T14:22:36.202Z,26.16
2022-07-26T14:25:02.861Z,26.17
2022-07-26T14:27:29.561Z,26.19
2022-07-26T14:29:56.460Z,26.22
2022-07-26T14:32:23.263Z,26.24
2022-07-26T14:34:50.957Z,26.23
2022-07-26T14:37:43.473Z,26.23
2022-07-26T14:40:09.157Z,26.24
2022-07-26T14:42:35.757Z,26.24
2022-07-26T14:45:02.322Z,26.24
2022-07-26T14:47:29.025Z,26.25
2022-07-26T14:49:55.571Z,26.25
2022-07-26T14:52:22.348Z,26.25
2022-07-26T14:54:48.932Z,26.25
2022-07-26T14:57:15.552Z,26.27
2022-07-26T14:59:42.065Z,26.26
2022-07-26T15:02:11.303Z,26.27
2022-07-26T15:04:37.865Z,26.27
2022-07-26T15:07:04.508Z,26.28
2022-07-26T15:09:31.114Z,26.28
2022-07-26T15:11:58.204Z,26.30
2022-07-26T15:14:24.732Z,26.30
2022-07-26T15:16:52.032Z,26.30
2022-07-26T15:19:23.637Z,26.32
2022-07-26T15:21:54.761Z,26.26
2022-07-26T15:24:24.316Z,26.32
2022-07-26T15:26:51.173Z,26.32
2022-07-26T15:29:17.791Z,26.32
2022-07-26T15:31:44.676Z,26.34
2022-07-26T15:34:11.811Z,26.34
2022-07-26T15:36:38.800Z,26.34
2022-07-26T15:39:16.551Z,26.35
2022-07-26T15:41:45.323Z,26.36
2022-07-26T15:44:12.484Z,26.37
2022-07-26T15:46:39.745Z,26.36
2022-07-26T15:49:07.463Z,26.37
2022-07-26T15:51:34.497Z,26.38
2022-07-26T15:54:03.056Z,26.37
2022-07-26T15:56:29.902Z,26.37
2022-07-26T15:58:56.497Z,26.38
2022-07-26T16:03:43.855Z,26.36
2022-07-26T16:06:10.502Z,26.37
2022-07-26T16:08:52.765Z,26.38
2022-07-26T16:11:23.681Z,26.38
2022-07-26T16:13:50.293Z,26.37
2022-07-26T16:16:16.979Z,26.39
2022-07-26T16:18:43.902Z,26.39
2022-07-26T16:21:10.562Z,26.38
2022-07-26T16:23:37.525Z,26.38
2022-07-26T16:26:05.757Z,26.37
2022-07-26T16:28:32.525Z,26.39
2022-07-26T16:30:59.170Z,26.38
2022-07-26T16:33:25.817Z,26.39
2022-07-26T16:35:54.514Z,26.39
2022-07-26T16:40:35.789Z,26.40
2022-07-26T16:43:08.844Z,26.39
2022-07-26T16:45:38.548Z,26.39
2022-07-26T16:48:05.639Z,26.40
2022-07-26T16:50:32.311Z,26.41
2022-07-26T16:53:00.680Z,26.41
2022-07-26T16:55:27.458Z,26.41
2022-07-26T16:57:53.981Z,26.41
2022-07-26T17:00:22.177Z,26.41
2022-07-26T17:02:48.731Z,26.41
2022-07-26T17:05:15.495Z,26.42
2022-07-26T17:07:42.197Z,26.43
2022-07-26T17:10:09.974Z,26.40
2022-07-26T17:12:37.518Z,26.37
2022-07-26T17:15:05.262Z,26.43
2022-07-26T17:17:31.797Z,26.43
2022-07-26T17:19:58.492Z,26.43
2022-07-26T17:22:25.118Z,26.43
2022-07-26T17:24:52.182Z,26.44
2022-07-26T17:27:18.823Z,26.44
2022-07-26T17:29:45.791Z,26.43
2022-07-26T17:32:12.412Z,26.43
2022-07-26T17:34:40.060Z,26.44
2022-07-26T17:37:08.289Z,26.44
2022-07-26T17:39:51.728Z,26.44
2022-07-26T17:42:19.691Z,26.44
2022-07-26T17:44:46.288Z,26.44
2022-07-26T17:47:27.819Z,26.44
2022-07-26T17:49:55.783Z,26.44
2022-07-26T17:52:23.578Z,26.44
2022-07-26T17:54:50.766Z,26.45
2022-07-26T17:57:17.358Z,26.44
2022-07-26T17:59:43.902Z,26.44
2022-07-26T18:02:10.610Z,26.44
2022-07-26T18:04:37.330Z,26.44
2022-07-26T18:07:03.929Z,26.44
2022-07-26T18:09:30.517Z,26.44
2022-07-26T18:11:57.183Z,26.44
2022-07-26T18:14:23.864Z,26.44
2022-07-26T18:16:54.477Z,26.44
2022-07-26T18:19:21.834Z,26.42
2022-07-26T18:21:48.690Z,26.44
2022-07-26T18:24:17.253Z,26.44
2022-07-26T18:26:44.384Z,26.44
2022-07-26T18:29:11.491Z,26.44
2022-07-26T18:31:38.338Z,26.44
2022-07-26T18:34:06.718Z,26.44
2022-07-26T18:36:34.411Z,26.44
2022-07-26T18:39:01.177Z,26.44
2022-07-26T18:41:30.361Z,26.42
2022-07-26T18:43:59.463Z,26.39
2022-07-26T18:46:26.108Z,26.42
2022-07-26T18:48:53.048Z,26.42
2022-07-26T18:51:22.013Z,26.43
2022-07-26T18:53:53.663Z,26.40
2022-07-26T18:56:20.849Z,26.41
2022-07-26T18:58:47.470Z,26.40
2022-07-26T19:01:14.188Z,26.39
2022-07-26T19:03:40.930Z,26.38
2022-07-26T19:06:08.634Z,26.37
2022-07-26T19:08:35.521Z,26.38
2022-07-26T19:11:02.057Z,26.39
2022-07-26T19:13:28.986Z,26.39
2022-07-26T19:15:56.294Z,26.41
2022-07-26T19:18:23.254Z,26.42
2022-07-26T19:20:50.039Z,26.41
2022-07-26T19:23:16.681Z,26.40
2022-07-26T19:25:43.381Z,26.42
2022-07-26T19:28:09.958Z,26.42
2022-07-26T19:30:37.051Z,26.41
2022-07-26T19:33:04.472Z,26.42
2022-07-26T19:35:31.064Z,26.42
2022-07-26T19:37:57.721Z,26.41
2022-07-26T19:40:24.702Z,26.42
2022-07-26T19:42:51.569Z,26.42
2022-07-26T19:45:18.581Z,26.41
2022-07-26T19:47:45.472Z,26.42
2022-07-26T19:50:12.341Z,26.41
2022-07-26T19:52:40.660Z,26.41
2022-07-26T19:55:08.333Z,26.43
2022-07-26T19:57:35.178Z,26.41
2022-07-26T20:00:03.422Z,26.41
2022-07-26T20:02:40.723Z,26.43
2022-07-26T20:05:09.861Z,26.42
2022-07-26T20:07:36.529Z,26.42
2022-07-26T20:10:05.200Z,26.41
2022-07-26T20:12:34.322Z,26.41
2022-07-26T20:15:00.985Z,26.41
2022-07-26T20:17:28.563Z,26.40
2022-07-26T20:19:55.459Z,26.40
2022-07-26T20:22:23.379Z,26.39
2022-07-26T20:24:55.084Z,26.39
2022-07-26T20:27:23.419Z,26.39
2022-07-26T20:29:50.201Z,26.39
2022-07-26T20:32:17.509Z,26.38
2022-07-26T20:34:44.272Z,26.38
2022-07-26T20:37:10.994Z,26.39
2022-07-26T20:39:38.283Z,26.38
2022-07-26T20:42:06.692Z,26.38
2022-07-26T20:44:36.069Z,26.38
2022-07-26T20:47:06.081Z,26.37
2022-07-26T20:49:32.983Z,26.37
2022-07-26T20:52:00.170Z,26.37
2022-07-26T20:54:26.927Z,26.37
2022-07-26T20:56:53.734Z,26.36
2022-07-26T20:59:20.341Z,26.37
2022-07-26T21:01:47.110Z,26.36
2022-07-26T21:04:17.114Z,26.36
2022-07-26T21:06:43.710Z,26.34
2022-07-26T21:09:10.726Z,26.35
2022-07-26T21:14:03.832Z,26.33
2022-07-26T21:16:30.484Z,26.34
2022-07-26T21:18:57.077Z,26.34
2022-07-26T21:21:23.920Z,26.33
2022-07-26T21:23:50.844Z,26.27
2022-07-26T21:26:17.553Z,26.34
2022-07-26T21:28:44.478Z,26.34
2022-07-26T21:31:11.237Z,26.34
2022-07-26T21:33:37.933Z,26.33
2022-07-26T21:36:04.938Z,26.33
2022-07-26T21:38:33.266Z,26.33
2022-07-26T21:41:00.016Z,26.33
2022-07-26T21:43:26.761Z,26.32
2022-07-26T21:45:54.456Z,26.31
2022-07-26T21:48:22.892Z,26.30
2022-07-26T21:50:49.697Z,26.28
2022-07-26T21:53:16.354Z,26.28
2022-07-26T21:55:43.249Z,26.27
2022-07-26T21:58:10.376Z,26.26
2022-07-26T22:00:39.081Z,26.25
2022-07-26T22:03:06.841Z,26.24
2022-07-26T22:05:39.152Z,26.19
2022-07-26T22:08:10.957Z,26.22
2022-07-26T22:10:43.447Z,26.15
2022-07-26T22:13:11.662Z,26.13
2022-07-26T22:15:38.201Z,26.18
2022-07-26T22:18:05.235Z,26.17
2022-07-26T22:23:06.261Z,26.15
2022-07-26T22:25:34.105Z,26.14
2022-07-26T22:28:01.646Z,26.14
2022-07-26T22:30:29.324Z,26.13
2022-07-26T22:32:57.007Z,26.13
2022-07-26T22:35:34.892Z,26.13
2022-07-26T22:38:06.228Z,26.12
2022-07-26T22:40:33.101Z,26.13
2022-07-26T22:43:00.312Z,26.12
2022-07-26T22:45:28.805Z,26.12
2022-07-26T22:47:56.699Z,26.12
2022-07-26T22:50:24.901Z,26.11
2022-07-26T22:52:52.384Z,26.05
2022-07-26T22:55:19.460Z,26.10
2022-07-26T22:57:46.573Z,26.06
2022-07-26T23:00:16.137Z,26.09
2022-07-26T23:02:43.711Z,26.09
2022-07-26T23:05:11.642Z,26.08
2022-07-26T23:07:40.141Z,26.07
2022-07-26T23:10:10.993Z,26.07
2022-07-26T23:12:37.741Z,26.08
2022-07-26T23:15:06.696Z,26.07
2022-07-26T23:17:35.758Z,26.06
2022-07-26T23:20:06.759Z,26.05
2022-07-26T23:22:33.936Z,26.05
2022-07-26T23:25:00.546Z,26.04
2022-07-26T23:27:27.147Z,26.03
2022-07-26T23:29:53.753Z,26.01
2022-07-26T23:32:20.385Z,26.02
2022-07-26T23:34:47.006Z,26.01
2022-07-26T23:37:13.594Z,26.00
2022-07-26T23:39:40.133Z,26.00
2022-07-26T23:42:07.380Z,26.01
2022-07-26T23:44:34.210Z,25.99
2022-07-26T23:47:01.011Z,25.94
2022-07-26T23:49:27.981Z,25.98
2022-07-26T23:51:54.786Z,25.99
2022-07-26T23:54:21.578Z,25.97
2022-07-26T23:56:48.256Z,25.96
2022-07-26T23:59:15.536Z,25.96
